Aviation Digital Data Service (ADDS)

Output produced by METARs form (0015 UTC 29 January 2015)
found at http://aviationweather.gov/adds/metars/
 
KPOU 282333Z 2900/2924 31003KT P6SM SKC 
     FM291600 19003KT P6SM FEW100 BKN200